sensor_id;sensor_type;location;lat;lon;timestamp;pressure;altitude;pressure_sealevel;temperature;humidity
40592;BME280;26301;42.832;23.918;2023-02-16T00:00:43;94295.84;;;-3.18;93.44
40592;BME280;26301;42.832;23.918;2023-02-16T00:03:13;94318.38;;;-3.05;93.56
40592;BME280;26301;42.832;23.918;2023-02-16T00:05:39;94319.47;;;-3.19;93.79
40592;BME280;26301;42.832;23.918;2023-02-16T00:08:05;94293.34;;;-3.29;94.28
40592;BME280;26301;42.832;23.918;2023-02-16T00:10:33;94301.06;;;-3.31;93.88
40592;BME280;26301;42.832;23.918;2023-02-16T00:13:00;94311.25;;;-3.21;93.84
40592;BME280;26301;42.832;23.918;2023-02-16T00:15:45;94288.44;;;-3.31;93.96
40592;BME280;26301;42.832;23.918;2023-02-16T00:18:16;94295.88;;;-3.29;94.08
40592;BME280;26301;42.832;23.918;2023-02-16T00:20:42;94296.06;;;-3.21;93.67
40592;BME280;26301;42.832;23.918;2023-02-16T00:23:08;94306.00;;;-3.08;92.83
40592;BME280;26301;42.832;23.918;2023-02-16T00:25:34;94308.97;;;-3.03;92.77
40592;BME280;26301;42.832;23.918;2023-02-16T00:28:03;94294.41;;;-3.11;92.04
40592;BME280;26301;42.832;23.918;2023-02-16T00:30:29;94299.84;;;-3.15;91.99
40592;BME280;26301;42.832;23.918;2023-02-16T00:32:55;94299.84;;;-3.15;92.29
40592;BME280;26301;42.832;23.918;2023-02-16T00:35:21;94293.84;;;-3.14;92.55
40592;BME280;26301;42.832;23.918;2023-02-16T00:37:47;94314.50;;;-3.09;92.90
40592;BME280;26301;42.832;23.918;2023-02-16T00:40:14;94289.84;;;-3.17;92.32
40592;BME280;26301;42.832;23.918;2023-02-16T00:42:41;94312.78;;;-3.09;92.37
40592;BME280;26301;42.832;23.918;2023-02-16T00:45:16;94308.91;;;-3.13;92.78
40592;BME280;26301;42.832;23.918;2023-02-16T00:47:45;94291.53;;;-3.27;92.54
40592;BME280;26301;42.832;23.918;2023-02-16T00:50:26;94308.78;;;-3.11;92.31
40592;BME280;26301;42.832;23.918;2023-02-16T00:52:52;94308.53;;;-3.08;92.01
40592;BME280;26301;42.832;23.918;2023-02-16T00:55:21;94291.13;;;-3.23;91.79
40592;BME280;26301;42.832;23.918;2023-02-16T00:57:50;94302.91;;;-3.12;91.96
40592;BME280;26301;42.832;23.918;2023-02-16T01:00:35;94286.78;;;-3.20;91.60
40592;BME280;26301;42.832;23.918;2023-02-16T01:03:04;94284.50;;;-3.24;91.67
40592;BME280;26301;42.832;23.918;2023-02-16T01:05:30;94290.34;;;-3.23;91.74
40592;BME280;26301;42.832;23.918;2023-02-16T01:07:56;94277.91;;;-3.36;91.42
40592;BME280;26301;42.832;23.918;2023-02-16T01:10:40;94300.84;;;-3.28;91.06
40592;BME280;26301;42.832;23.918;2023-02-16T01:13:27;94273.81;;;-3.48;91.15
40592;BME280;26301;42.832;23.918;2023-02-16T01:15:53;94292.84;;;-3.44;92.15
40592;BME280;26301;42.832;23.918;2023-02-16T01:18:19;94260.03;;;-3.76;92.29
40592;BME280;26301;42.832;23.918;2023-02-16T01:20:45;94270.59;;;-3.71;92.53
40592;BME280;26301;42.832;23.918;2023-02-16T01:23:11;94267.50;;;-3.75;91.96
40592;BME280;26301;42.832;23.918;2023-02-16T01:25:37;94278.72;;;-3.68;91.91
40592;BME280;26301;42.832;23.918;2023-02-16T01:28:20;94273.09;;;-3.71;91.73
40592;BME280;26301;42.832;23.918;2023-02-16T01:30:47;94252.94;;;-3.82;91.90
40592;BME280;26301;42.832;23.918;2023-02-16T01:33:12;94278.59;;;-3.66;91.62
40592;BME280;26301;42.832;23.918;2023-02-16T01:35:38;94277.91;;;-3.68;91.71
40592;BME280;26301;42.832;23.918;2023-02-16T01:38:04;94267.66;;;-3.87;92.73
40592;BME280;26301;42.832;23.918;2023-02-16T01:45:47;94263.75;;;-3.92;93.24
40592;BME280;26301;42.832;23.918;2023-02-16T01:48:21;94270.31;;;-3.89;93.82
40592;BME280;26301;42.832;23.918;2023-02-16T01:51:02;94254.16;;;-3.98;93.36
40592;BME280;26301;42.832;23.918;2023-02-16T01:53:57;94273.97;;;-3.82;93.56
40592;BME280;26301;42.832;23.918;2023-02-16T01:57:19;94272.25;;;-3.81;92.43
40592;BME280;26301;42.832;23.918;2023-02-16T02:02:18;94245.69;;;-4.08;93.46
40592;BME280;26301;42.832;23.918;2023-02-16T02:08:16;94260.56;;;-3.94;92.99
40592;BME280;26301;42.832;23.918;2023-02-16T02:11:26;94242.00;;;-4.04;92.94
40592;BME280;26301;42.832;23.918;2023-02-16T02:13:55;94243.53;;;-4.13;93.07
40592;BME280;26301;42.832;23.918;2023-02-16T02:16:24;94237.47;;;-4.21;92.63
40592;BME280;26301;42.832;23.918;2023-02-16T02:18:50;94264.06;;;-4.06;93.14
40592;BME280;26301;42.832;23.918;2023-02-16T02:27:15;94223.63;;;-4.27;93.10
40592;BME280;26301;42.832;23.918;2023-02-16T02:29:50;94234.84;;;-4.20;93.46
40592;BME280;26301;42.832;23.918;2023-02-16T02:43:06;94259.25;;;-4.09;92.64
40592;BME280;26301;42.832;23.918;2023-02-16T02:45:41;94229.81;;;-4.31;92.63
40592;BME280;26301;42.832;23.918;2023-02-16T02:48:08;94246.41;;;-4.17;92.62
40592;BME280;26301;42.832;23.918;2023-02-16T02:50:42;94251.78;;;-4.10;92.75
40592;BME280;26301;42.832;23.918;2023-02-16T02:53:35;94253.38;;;-4.09;92.97
40592;BME280;26301;42.832;23.918;2023-02-16T02:56:04;94239.09;;;-4.20;92.53
40592;BME280;26301;42.832;23.918;2023-02-16T02:58:55;94254.75;;;-4.05;92.38
40592;BME280;26301;42.832;23.918;2023-02-16T03:01:44;94233.97;;;-4.30;93.35
40592;BME280;26301;42.832;23.918;2023-02-16T03:04:13;94254.78;;;-4.17;93.19
40592;BME280;26301;42.832;23.918;2023-02-16T03:06:46;94252.50;;;-4.20;92.71
40592;BME280;26301;42.832;23.918;2023-02-16T03:09:14;94257.19;;;-4.15;92.07
40592;BME280;26301;42.832;23.918;2023-02-16T03:11:40;94229.38;;;-4.36;92.04
40592;BME280;26301;42.832;23.918;2023-02-16T03:14:31;94253.66;;;-4.24;92.80
40592;BME280;26301;42.832;23.918;2023-02-16T03:17:02;94236.25;;;-4.38;93.10
40592;BME280;26301;42.832;23.918;2023-02-16T03:19:50;94256.50;;;-4.17;92.66
40592;BME280;26301;42.832;23.918;2023-02-16T03:22:35;94232.22;;;-4.29;92.34
40592;BME280;26301;42.832;23.918;2023-02-16T03:25:27;94239.56;;;-4.26;92.82
40592;BME280;26301;42.832;23.918;2023-02-16T03:28:12;94214.94;;;-4.45;93.04
40592;BME280;26301;42.832;23.918;2023-02-16T03:30:57;94243.91;;;-4.28;92.41
40592;BME280;26301;42.832;23.918;2023-02-16T03:33:24;94245.63;;;-4.29;91.93
40592;BME280;26301;42.832;23.918;2023-02-16T03:35:51;94257.00;;;-4.34;92.30
40592;BME280;26301;42.832;23.918;2023-02-16T03:38:18;94229.63;;;-4.50;92.08
40592;BME280;26301;42.832;23.918;2023-02-16T03:40:44;94256.66;;;-4.41;92.64
40592;BME280;26301;42.832;23.918;2023-02-16T03:43:12;94241.53;;;-4.41;92.70
40592;BME280;26301;42.832;23.918;2023-02-16T03:45:40;94241.88;;;-4.46;91.84
40592;BME280;26301;42.832;23.918;2023-02-16T03:48:07;94241.88;;;-4.46;93.41
40592;BME280;26301;42.832;23.918;2023-02-16T03:50:32;94247.75;;;-4.56;93.61
40592;BME280;26301;42.832;23.918;2023-02-16T03:52:58;94244.19;;;-4.54;93.36
40592;BME280;26301;42.832;23.918;2023-02-16T03:55:41;94230.34;;;-4.71;92.52
40592;BME280;26301;42.832;23.918;2023-02-16T03:58:12;94232.06;;;-4.60;92.67
40592;BME280;26301;42.832;23.918;2023-02-16T04:00:39;94230.25;;;-4.69;92.62
40592;BME280;26301;42.832;23.918;2023-02-16T04:03:05;94224.59;;;-4.73;92.60
40592;BME280;26301;42.832;23.918;2023-02-16T04:05:33;94245.78;;;-4.53;92.13
40592;BME280;26301;42.832;23.918;2023-02-16T04:07:58;94241.78;;;-4.55;92.14
40592;BME280;26301;42.832;23.918;2023-02-16T04:10:24;94246.59;;;-4.52;92.10
40592;BME280;26301;42.832;23.918;2023-02-16T04:12:50;94238.81;;;-4.61;91.65
40592;BME280;26301;42.832;23.918;2023-02-16T04:15:18;94234.59;;;-4.60;91.93
40592;BME280;26301;42.832;23.918;2023-02-16T04:17:44;94222.88;;;-4.61;92.71
40592;BME280;26301;42.832;23.918;2023-02-16T04:20:14;94223.34;;;-4.56;92.86
40592;BME280;26301;42.832;23.918;2023-02-16T04:22:40;94243.13;;;-4.29;93.07
40592;BME280;26301;42.832;23.918;2023-02-16T04:25:06;94238.31;;;-4.32;91.08
40592;BME280;26301;42.832;23.918;2023-02-16T04:27:33;94245.84;;;-4.21;89.71
40592;BME280;26301;42.832;23.918;2023-02-16T04:29:59;94216.88;;;-4.49;88.53
40592;BME280;26301;42.832;23.918;2023-02-16T04:32:24;94236.03;;;-4.46;89.58
40592;BME280;26301;42.832;23.918;2023-02-16T04:34:50;94231.69;;;-4.55;91.45
40592;BME280;26301;42.832;23.918;2023-02-16T04:37:16;94235.81;;;-4.43;91.27
40592;BME280;26301;42.832;23.918;2023-02-16T04:39:41;94238.22;;;-4.42;91.16
40592;BME280;26301;42.832;23.918;2023-02-16T04:42:07;94241.53;;;-4.41;91.18
40592;BME280;26301;42.832;23.918;2023-02-16T04:44:32;94201.22;;;-4.64;90.67
40592;BME280;26301;42.832;23.918;2023-02-16T04:46:58;94163.91;;;-4.81;89.78
40592;BME280;26301;42.832;23.918;2023-02-16T04:49:23;94207.41;;;-4.56;89.46
40592;BME280;26301;42.832;23.918;2023-02-16T04:51:49;94234.75;;;-4.41;89.64
40592;BME280;26301;42.832;23.918;2023-02-16T04:54:15;94221.03;;;-4.59;91.19
40592;BME280;26301;42.832;23.918;2023-02-16T04:56:45;94216.47;;;-4.65;91.94
40592;BME280;26301;42.832;23.918;2023-02-16T04:59:11;94200.00;;;-4.92;93.15
40592;BME280;26301;42.832;23.918;2023-02-16T05:01:37;94217.88;;;-4.84;94.61
40592;BME280;26301;42.832;23.918;2023-02-16T05:04:02;94244.91;;;-4.74;95.27
40592;BME280;26301;42.832;23.918;2023-02-16T05:06:28;94247.41;;;-4.74;96.08
40592;BME280;26301;42.832;23.918;2023-02-16T05:08:53;94252.69;;;-4.77;96.23
40592;BME280;26301;42.832;23.918;2023-02-16T05:11:19;94236.41;;;-4.85;96.93
40592;BME280;26301;42.832;23.918;2023-02-16T05:14:03;94234.00;;;-4.86;97.55
40592;BME280;26301;42.832;23.918;2023-02-16T05:16:48;94228.75;;;-4.83;96.91
40592;BME280;26301;42.832;23.918;2023-02-16T05:19:13;94254.97;;;-4.74;97.14
40592;BME280;26301;42.832;23.918;2023-02-16T05:21:39;94225.66;;;-4.98;96.94
40592;BME280;26301;42.832;23.918;2023-02-16T05:24:07;94260.13;;;-4.76;96.24
40592;BME280;26301;42.832;23.918;2023-02-16T05:26:34;94244.19;;;-4.88;94.75
40592;BME280;26301;42.832;23.918;2023-02-16T05:29:02;94265.16;;;-4.76;95.60
40592;BME280;26301;42.832;23.918;2023-02-16T05:31:28;94257.16;;;-4.81;95.51
40592;BME280;26301;42.832;23.918;2023-02-16T05:33:54;94235.63;;;-4.96;96.02
40592;BME280;26301;42.832;23.918;2023-02-16T05:36:20;94259.69;;;-4.81;96.78
40592;BME280;26301;42.832;23.918;2023-02-16T05:38:46;94249.47;;;-4.91;97.27
40592;BME280;26301;42.832;23.918;2023-02-16T05:41:12;94268.63;;;-4.77;97.16
40592;BME280;26301;42.832;23.918;2023-02-16T05:43:57;94270.44;;;-4.79;96.24
40592;BME280;26301;42.832;23.918;2023-02-16T05:46:23;94249.94;;;-4.86;97.08
40592;BME280;26301;42.832;23.918;2023-02-16T05:48:50;94272.88;;;-4.66;97.46
40592;BME280;26301;42.832;23.918;2023-02-16T05:51:15;94274.22;;;-4.73;98.43
40592;BME280;26301;42.832;23.918;2023-02-16T05:53:41;94277.78;;;-4.65;97.89
40592;BME280;26301;42.832;23.918;2023-02-16T05:56:07;94286.38;;;-4.56;98.15
40592;BME280;26301;42.832;23.918;2023-02-16T05:58:33;94279.03;;;-4.48;98.35
40592;BME280;26301;42.832;23.918;2023-02-16T06:00:58;94287.72;;;-4.29;97.93
40592;BME280;26301;42.832;23.918;2023-02-16T06:03:24;94286.56;;;-4.14;97.43
40592;BME280;26301;42.832;23.918;2023-02-16T06:05:58;94280.31;;;-3.99;97.40
40592;BME280;26301;42.832;23.918;2023-02-16T06:08:25;94267.78;;;-3.89;96.54
40592;BME280;26301;42.832;23.918;2023-02-16T06:10:52;94274.59;;;-3.69;96.81
40592;BME280;26301;42.832;23.918;2023-02-16T06:13:18;94288.03;;;-3.47;96.41
40592;BME280;26301;42.832;23.918;2023-02-16T06:15:45;94276.84;;;-3.33;95.74
40592;BME280;26301;42.832;23.918;2023-02-16T06:18:11;94280.38;;;-3.04;95.63
40592;BME280;26301;42.832;23.918;2023-02-16T06:20:37;94278.28;;;-2.89;95.03
40592;BME280;26301;42.832;23.918;2023-02-16T06:23:05;94276.13;;;-2.72;93.11
40592;BME280;26301;42.832;23.918;2023-02-16T06:25:31;94268.44;;;-2.61;91.45
40592;BME280;26301;42.832;23.918;2023-02-16T06:27:57;94280.91;;;-2.39;91.20
40592;BME280;26301;42.832;23.918;2023-02-16T06:30:23;94277.59;;;-2.20;90.79
40592;BME280;26301;42.832;23.918;2023-02-16T06:32:49;94272.59;;;-2.00;91.20
40592;BME280;26301;42.832;23.918;2023-02-16T06:35:15;94274.22;;;-1.80;90.44
40592;BME280;26301;42.832;23.918;2023-02-16T06:37:40;94265.69;;;-1.69;89.20
40592;BME280;26301;42.832;23.918;2023-02-16T06:40:07;94258.06;;;-1.59;88.25
40592;BME280;26301;42.832;23.918;2023-02-16T06:42:36;94262.63;;;-1.34;86.68
40592;BME280;26301;42.832;23.918;2023-02-16T06:45:02;94278.47;;;-1.12;86.28
40592;BME280;26301;42.832;23.918;2023-02-16T06:47:29;94247.50;;;-1.16;86.70
40592;BME280;26301;42.832;23.918;2023-02-16T06:49:54;94256.66;;;-0.86;85.56
40592;BME280;26301;42.832;23.918;2023-02-16T06:52:20;94271.78;;;-0.57;84.20
40592;BME280;26301;42.832;23.918;2023-02-16T06:54:46;94277.44;;;-0.35;83.87
40592;BME280;26301;42.832;23.918;2023-02-16T06:57:11;94263.00;;;-0.35;82.81
40592;BME280;26301;42.832;23.918;2023-02-16T06:59:37;94265.53;;;-0.07;82.03
40592;BME280;26301;42.832;23.918;2023-02-16T07:02:03;94255.44;;;0.01;81.01
40592;BME280;26301;42.832;23.918;2023-02-16T07:04:29;94262.31;;;0.18;80.73
40592;BME280;26301;42.832;23.918;2023-02-16T07:06:55;94263.16;;;0.45;81.45
40592;BME280;26301;42.832;23.918;2023-02-16T07:09:20;94266.81;;;0.60;80.69
40592;BME280;26301;42.832;23.918;2023-02-16T07:11:46;94264.50;;;0.75;80.34
40592;BME280;26301;42.832;23.918;2023-02-16T07:14:11;94266.59;;;0.98;79.44
40592;BME280;26301;42.832;23.918;2023-02-16T07:16:37;94283.47;;;1.25;78.39
40592;BME280;26301;42.832;23.918;2023-02-16T07:19:03;94275.13;;;1.41;77.44
40592;BME280;26301;42.832;23.918;2023-02-16T07:21:30;94273.16;;;1.60;78.24
40592;BME280;26301;42.832;23.918;2023-02-16T07:23:55;94256.94;;;1.70;75.52
40592;BME280;26301;42.832;23.918;2023-02-16T07:26:21;94253.03;;;1.83;75.76
40592;BME280;26301;42.832;23.918;2023-02-16T07:28:46;94270.78;;;2.10;74.38
40592;BME280;26301;42.832;23.918;2023-02-16T07:31:14;94259.13;;;2.07;74.22
40592;BME280;26301;42.832;23.918;2023-02-16T07:33:40;94278.63;;;2.33;72.19
40592;BME280;26301;42.832;23.918;2023-02-16T07:36:06;94255.38;;;2.36;70.89
40592;BME280;26301;42.832;23.918;2023-02-16T07:38:32;94251.91;;;2.53;72.83
40592;BME280;26301;42.832;23.918;2023-02-16T07:40:58;94268.66;;;2.80;71.96
40592;BME280;26301;42.832;23.918;2023-02-16T07:43:24;94262.09;;;2.94;69.71
40592;BME280;26301;42.832;23.918;2023-02-16T07:45:49;94259.84;;;3.07;68.65
40592;BME280;26301;42.832;23.918;2023-02-16T07:48:15;94262.38;;;3.24;67.98
40592;BME280;26301;42.832;23.918;2023-02-16T07:50:40;94242.88;;;3.31;67.44
40592;BME280;26301;42.832;23.918;2023-02-16T07:53:06;94245.56;;;3.46;68.54
40592;BME280;26301;42.832;23.918;2023-02-16T07:55:32;94262.75;;;3.68;67.90
40592;BME280;26301;42.832;23.918;2023-02-16T07:57:59;94237.19;;;3.68;69.56
40592;BME280;26301;42.832;23.918;2023-02-16T08:00:25;94255.94;;;3.92;66.46
40592;BME280;26301;42.832;23.918;2023-02-16T08:02:51;94235.50;;;3.92;65.78
40592;BME280;26301;42.832;23.918;2023-02-16T08:05:17;94248.81;;;4.10;65.60
40592;BME280;26301;42.832;23.918;2023-02-16T08:07:43;94235.34;;;4.16;64.47
40592;BME280;26301;42.832;23.918;2023-02-16T08:10:09;94233.38;;;4.26;61.43
40592;BME280;26301;42.832;23.918;2023-02-16T08:12:36;94251.34;;;4.41;59.86
40592;BME280;26301;42.832;23.918;2023-02-16T08:15:01;94244.25;;;4.51;61.21
40592;BME280;26301;42.832;23.918;2023-02-16T08:17:28;94242.25;;;4.62;59.27
40592;BME280;26301;42.832;23.918;2023-02-16T08:19:53;94233.50;;;4.79;55.27
40592;BME280;26301;42.832;23.918;2023-02-16T08:22:19;94249.16;;;4.99;54.32
40592;BME280;26301;42.832;23.918;2023-02-16T08:24:44;94258.25;;;5.01;55.12
40592;BME280;26301;42.832;23.918;2023-02-16T08:27:10;94237.66;;;4.95;56.57
40592;BME280;26301;42.832;23.918;2023-02-16T08:29:36;94242.63;;;5.11;52.58
40592;BME280;26301;42.832;23.918;2023-02-16T08:32:01;94248.81;;;5.17;54.52
40592;BME280;26301;42.832;23.918;2023-02-16T08:34:33;94242.06;;;5.24;51.51
40592;BME280;26301;42.832;23.918;2023-02-16T08:36:59;94253.97;;;5.46;51.33
40592;BME280;26301;42.832;23.918;2023-02-16T08:39:27;94247.44;;;5.44;52.33
40592;BME280;26301;42.832;23.918;2023-02-16T08:41:53;94245.94;;;5.64;51.23
40592;BME280;26301;42.832;23.918;2023-02-16T08:44:21;94241.44;;;5.66;50.86
40592;BME280;26301;42.832;23.918;2023-02-16T08:46:48;94249.22;;;5.73;52.26
40592;BME280;26301;42.832;23.918;2023-02-16T08:49:16;94247.53;;;5.80;53.30
40592;BME280;26301;42.832;23.918;2023-02-16T08:51:48;94225.84;;;5.83;51.33
40592;BME280;26301;42.832;23.918;2023-02-16T08:54:20;94231.88;;;5.90;50.84
40592;BME280;26301;42.832;23.918;2023-02-16T08:56:46;94242.47;;;6.02;50.85
40592;BME280;26301;42.832;23.918;2023-02-16T08:59:17;94222.31;;;5.99;49.80
40592;BME280;26301;42.832;23.918;2023-02-16T09:01:43;94228.59;;;6.11;50.17
40592;BME280;26301;42.832;23.918;2023-02-16T09:04:09;94236.88;;;6.13;51.05
40592;BME280;26301;42.832;23.918;2023-02-16T09:06:41;94229.63;;;6.16;50.29
40592;BME280;26301;42.832;23.918;2023-02-16T09:09:07;94233.78;;;6.17;48.99
40592;BME280;26301;42.832;23.918;2023-02-16T09:11:34;94233.66;;;6.26;48.37
40592;BME280;26301;42.832;23.918;2023-02-16T09:14:00;94253.56;;;6.38;49.45
40592;BME280;26301;42.832;23.918;2023-02-16T09:16:27;94223.06;;;6.29;48.66
40592;BME280;26301;42.832;23.918;2023-02-16T09:18:53;94242.56;;;6.45;48.22
40592;BME280;26301;42.832;23.918;2023-02-16T09:21:21;94228.31;;;6.42;49.38
40592;BME280;26301;42.832;23.918;2023-02-16T09:23:49;94230.84;;;6.57;49.24
40592;BME280;26301;42.832;23.918;2023-02-16T09:26:19;94236.31;;;6.75;48.14
40592;BME280;26301;42.832;23.918;2023-02-16T09:28:45;94198.97;;;6.51;48.77
40592;BME280;26301;42.832;23.918;2023-02-16T09:31:13;94222.75;;;6.81;47.51
40592;BME280;26301;42.832;23.918;2023-02-16T09:33:40;94229.53;;;6.89;47.81
40592;BME280;26301;42.832;23.918;2023-02-16T09:36:08;94234.56;;;7.04;47.78
40592;BME280;26301;42.832;23.918;2023-02-16T09:38:34;94220.84;;;6.90;47.85
40592;BME280;26301;42.832;23.918;2023-02-16T09:46:56;94228.75;;;7.17;46.53
40592;BME280;26301;42.832;23.918;2023-02-16T09:49:30;94228.81;;;7.30;45.59
40592;BME280;26301;42.832;23.918;2023-02-16T09:54:56;94202.72;;;7.26;48.75
40592;BME280;26301;42.832;23.918;2023-02-16T09:57:40;94219.41;;;7.37;47.40
40592;BME280;26301;42.832;23.918;2023-02-16T10:06:03;94219.09;;;7.53;47.85
40592;BME280;26301;42.832;23.918;2023-02-16T10:08:42;94220.66;;;7.54;47.88
40592;BME280;26301;42.832;23.918;2023-02-16T10:16:50;94203.63;;;7.47;48.14
40592;BME280;26301;42.832;23.918;2023-02-16T10:19:21;94191.59;;;7.54;46.91
40592;BME280;26301;42.832;23.918;2023-02-16T10:21:55;94197.75;;;7.60;48.43
40592;BME280;26301;42.832;23.918;2023-02-16T10:24:24;94194.00;;;7.55;47.65
40592;BME280;26301;42.832;23.918;2023-02-16T10:26:58;94203.31;;;7.63;47.22
40592;BME280;26301;42.832;23.918;2023-02-16T10:29:27;94191.25;;;7.64;47.43
40592;BME280;26301;42.832;23.918;2023-02-16T10:32:00;94204.72;;;7.72;47.32
40592;BME280;26301;42.832;23.918;2023-02-16T10:34:50;94193.03;;;7.70;47.91
40592;BME280;26301;42.832;23.918;2023-02-16T10:37:27;94198.66;;;7.80;47.30
40592;BME280;26301;42.832;23.918;2023-02-16T10:40:03;94193.53;;;7.87;46.72
40592;BME280;26301;42.832;23.918;2023-02-16T10:47:56;94173.75;;;7.94;48.47
40592;BME280;26301;42.832;23.918;2023-02-16T10:50:38;94186.44;;;8.02;46.86
40592;BME280;26301;42.832;23.918;2023-02-16T10:55:41;94174.75;;;7.99;45.71
40592;BME280;26301;42.832;23.918;2023-02-16T10:58:24;94181.53;;;8.07;45.87
40592;BME280;26301;42.832;23.918;2023-02-16T11:03:23;94179.13;;;8.06;48.90
40592;BME280;26301;42.832;23.918;2023-02-16T11:05:51;94169.63;;;7.99;50.38
40592;BME280;26301;42.832;23.918;2023-02-16T11:08:17;94172.19;;;7.99;51.00
40592;BME280;26301;42.832;23.918;2023-02-16T11:10:47;94155.34;;;7.90;46.54
40592;BME280;26301;42.832;23.918;2023-02-16T11:13:34;94162.69;;;8.00;49.51
40592;BME280;26301;42.832;23.918;2023-02-16T11:16:09;94156.97;;;7.98;46.46
40592;BME280;26301;42.832;23.918;2023-02-16T11:18:41;94154.56;;;7.96;46.88
40592;BME280;26301;42.832;23.918;2023-02-16T11:21:10;94158.34;;;8.00;46.11
40592;BME280;26301;42.832;23.918;2023-02-16T11:23:43;94160.72;;;7.95;45.24
40592;BME280;26301;42.832;23.918;2023-02-16T11:26:24;94168.66;;;8.07;44.48
40592;BME280;26301;42.832;23.918;2023-02-16T11:28:51;94124.25;;;7.78;45.24
40592;BME280;26301;42.832;23.918;2023-02-16T11:31:32;94140.13;;;7.95;45.77
40592;BME280;26301;42.832;23.918;2023-02-16T11:34:11;94160.56;;;8.10;46.30
40592;BME280;26301;42.832;23.918;2023-02-16T11:36:43;94162.34;;;8.10;43.77
40592;BME280;26301;42.832;23.918;2023-02-16T11:41:52;94146.50;;;8.13;48.29
40592;BME280;26301;42.832;23.918;2023-02-16T11:44:37;94135.81;;;8.16;44.51
40592;BME280;26301;42.832;23.918;2023-02-16T11:47:21;94138.78;;;8.13;44.79
40592;BME280;26301;42.832;23.918;2023-02-16T11:49:50;94133.44;;;8.14;43.97
40592;BME280;26301;42.832;23.918;2023-02-16T11:52:29;94131.84;;;8.20;43.46
40592;BME280;26301;42.832;23.918;2023-02-16T11:54:58;94137.00;;;8.20;44.49
40592;BME280;26301;42.832;23.918;2023-02-16T11:57:27;94116.59;;;8.12;42.88
40592;BME280;26301;42.832;23.918;2023-02-16T11:59:55;94117.22;;;8.20;42.36
40592;BME280;26301;42.832;23.918;2023-02-16T12:05:35;94132.47;;;8.35;41.51
40592;BME280;26301;42.832;23.918;2023-02-16T12:11:00;94115.09;;;8.44;42.65
40592;BME280;26301;42.832;23.918;2023-02-16T12:16:35;94114.09;;;8.58;41.71
40592;BME280;26301;42.832;23.918;2023-02-16T12:22:01;94106.97;;;8.40;43.44
40592;BME280;26301;42.832;23.918;2023-02-16T12:27:19;94091.47;;;8.27;46.05
40592;BME280;26301;42.832;23.918;2023-02-16T12:38:12;94095.03;;;8.26;43.55
40592;BME280;26301;42.832;23.918;2023-02-16T12:40:51;94072.28;;;8.10;43.46
40592;BME280;26301;42.832;23.918;2023-02-16T12:44:01;94084.13;;;8.17;41.50
40592;BME280;26301;42.832;23.918;2023-02-16T12:46:53;94082.97;;;8.13;44.02
40592;BME280;26301;42.832;23.918;2023-02-16T12:49:21;94085.53;;;8.20;49.05
40592;BME280;26301;42.832;23.918;2023-02-16T12:52:05;94082.56;;;8.10;50.38
40592;BME280;26301;42.832;23.918;2023-02-16T12:54:36;94091.25;;;8.02;46.90
40592;BME280;26301;42.832;23.918;2023-02-16T12:57:09;94065.31;;;7.90;48.55
40592;BME280;26301;42.832;23.918;2023-02-16T13:02:40;94079.78;;;7.98;46.90
40592;BME280;26301;42.832;23.918;2023-02-16T13:05:17;94069.28;;;7.86;50.53
40592;BME280;26301;42.832;23.918;2023-02-16T13:07:46;94069.06;;;7.81;51.36
40592;BME280;26301;42.832;23.918;2023-02-16T13:15:41;94041.47;;;7.55;49.15
40592;BME280;26301;42.832;23.918;2023-02-16T13:18:19;94067.66;;;7.72;51.44
40592;BME280;26301;42.832;23.918;2023-02-16T13:20:52;94070.81;;;7.74;47.58
40592;BME280;26301;42.832;23.918;2023-02-16T13:37:22;94058.66;;;7.41;51.28
40592;BME280;26301;42.832;23.918;2023-02-16T13:45:37;94057.88;;;7.34;50.08
40592;BME280;26301;42.832;23.918;2023-02-16T13:48:44;94052.28;;;7.30;52.91
40592;BME280;26301;42.832;23.918;2023-02-16T13:51:17;94012.44;;;7.00;52.27
40592;BME280;26301;42.832;23.918;2023-02-16T13:54:06;94054.06;;;7.30;54.60
40592;BME280;26301;42.832;23.918;2023-02-16T13:56:38;93989.47;;;6.85;50.84
40592;BME280;26301;42.832;23.918;2023-02-16T14:01:49;93964.50;;;6.66;53.11
40592;BME280;26301;42.832;23.918;2023-02-16T14:09:53;93994.91;;;6.62;54.76
40592;BME280;26301;42.832;23.918;2023-02-16T14:21:29;94050.53;;;6.83;56.19
40592;BME280;26301;42.832;23.918;2023-02-16T14:24:00;94015.38;;;6.55;56.52
40592;BME280;26301;42.832;23.918;2023-02-16T14:26:29;94001.88;;;6.40;55.18
40592;BME280;26301;42.832;23.918;2023-02-16T14:31:27;93998.25;;;6.28;56.46
40592;BME280;26301;42.832;23.918;2023-02-16T14:34:02;93967.50;;;6.06;57.36
40592;BME280;26301;42.832;23.918;2023-02-16T14:36:30;93986.63;;;6.04;57.78
40592;BME280;26301;42.832;23.918;2023-02-16T14:38:57;93994.69;;;6.01;58.58
40592;BME280;26301;42.832;23.918;2023-02-16T14:41:33;94046.69;;;6.16;59.08
40592;BME280;26301;42.832;23.918;2023-02-16T14:46:45;94044.81;;;5.60;60.70
40592;BME280;26301;42.832;23.918;2023-02-16T14:52:33;94040.97;;;5.35;61.93
40592;BME280;26301;42.832;23.918;2023-02-16T14:58:02;94034.59;;;5.09;62.57
40592;BME280;26301;42.832;23.918;2023-02-16T15:00:52;94031.06;;;4.95;62.51
40592;BME280;26301;42.832;23.918;2023-02-16T15:03:25;94007.63;;;4.62;62.80
40592;BME280;26301;42.832;23.918;2023-02-16T15:06:01;94050.13;;;4.63;65.29
40592;BME280;26301;42.832;23.918;2023-02-16T15:08:32;94006.16;;;4.15;64.52
40592;BME280;26301;42.832;23.918;2023-02-16T15:11:00;94052.94;;;4.39;65.14
40592;BME280;26301;42.832;23.918;2023-02-16T15:13:32;94023.03;;;4.09;67.10
40592;BME280;26301;42.832;23.918;2023-02-16T15:15:59;94039.63;;;3.90;68.93
40592;BME280;26301;42.832;23.918;2023-02-16T15:18:31;94057.25;;;3.85;69.09
40592;BME280;26301;42.832;23.918;2023-02-16T15:20:58;94007.75;;;3.40;70.08
40592;BME280;26301;42.832;23.918;2023-02-16T15:23:26;94047.38;;;3.59;71.10
40592;BME280;26301;42.832;23.918;2023-02-16T15:26:04;94058.97;;;3.70;71.41
40592;BME280;26301;42.832;23.918;2023-02-16T15:28:36;94030.53;;;3.42;71.17
40592;BME280;26301;42.832;23.918;2023-02-16T15:31:04;94062.66;;;3.36;71.95
40592;BME280;26301;42.832;23.918;2023-02-16T15:33:37;94064.34;;;3.21;72.54